Time;durP1;ratioP1;P1;durP2;ratioP2;P2;SDS_P1;SDS_P2;PMS_P1;PMS_P2;Temp;Humidity;BMP_temperature;BMP_pressure;BME280_temperature;BME280_humidity;BME280_pressure;Samples;Min_cycle;Max_cycle;Signal;HPM_P1;HPM_P2
2022/02/02 00:01:20;;;;;;;;;;;19.50;40.70;;;;;;5074535;28;20391;-64
2022/02/02 00:03:51;;;;;;;;;;;19.50;40.70;;;;;;5074745;28;19915;-63
2022/02/02 00:06:23;;;;;;;;;;;19.50;40.70;;;;;;5074786;28;19916;-63
2022/02/02 00:08:58;;;;;;;;;;;19.50;40.70;;;;;;5074568;28;20003;-64
2022/02/02 00:16:53;;;;;;;;;;;19.50;40.60;;;;;;5074394;28;20309;-63
2022/02/02 00:19:36;;;;;;;;;;;19.50;40.70;;;;;;5074530;28;19999;-63
2022/02/02 00:22:11;;;;;;;;;;;19.50;40.70;;;;;;5074364;28;20518;-63
2022/02/02 00:24:54;;;;;;;;;;;19.50;40.70;;;;;;5074220;28;19931;-63
2022/02/02 00:27:22;;;;;;;;;;;19.50;40.70;;;;;;5074265;28;19909;-63
2022/02/02 00:29:53;;;;;;;;;;;19.50;40.70;;;;;;5074406;28;19915;-63
2022/02/02 00:34:47;;;;;;;;;;;19.50;40.70;;;;;;5074157;28;20002;-64
2022/02/02 00:37:15;;;;;;;;;;;19.50;40.70;;;;;;5074358;28;20006;-63
2022/02/02 00:39:40;;;;;;;;;;;19.50;40.60;;;;;;5074117;28;20260;-63
2022/02/02 00:42:06;;;;;;;;;;;19.50;40.70;;;;;;5073904;28;19909;-63
2022/02/02 00:44:33;;;;;;;;;;;19.50;40.70;;;;;;5074029;28;19913;-63
2022/02/02 00:46:58;;;;;;;;;;;19.50;40.70;;;;;;5074220;28;19938;-63
2022/02/02 00:49:24;;;;;;;;;;;19.50;40.70;;;;;;5073931;28;19947;-64
2022/02/02 00:51:52;;;;;;;;;;;19.50;40.70;;;;;;5073700;28;20004;-64
2022/02/02 00:54:20;;;;;;;;;;;19.50;40.60;;;;;;5073652;28;19932;-63
2022/02/02 00:56:46;;;;;;;;;;;19.50;40.70;;;;;;5073826;28;19947;-63
2022/02/02 00:59:12;;;;;;;;;;;19.50;40.70;;;;;;5073491;28;20049;-63
2022/02/02 01:01:38;;;;;;;;;;;19.50;40.70;;;;;;5073676;28;19916;-64
2022/02/02 01:04:03;;;;;;;;;;;19.50;40.70;;;;;;5073612;28;19908;-63
2022/02/02 01:06:33;;;;;;;;;;;19.50;40.70;;;;;;5055631;28;19953;-64
2022/02/02 01:19:38;;;;;;;;;;;19.50;40.70;;;;;;5073387;28;20003;-63
2022/02/02 01:30:00;;;;;;;;;;;19.40;40.60;;;;;;5073670;28;19962;-63
2022/02/02 01:32:26;;;;;;;;;;;19.40;40.60;;;;;;5073195;28;20360;-63
2022/02/02 01:34:54;;;;;;;;;;;19.40;40.60;;;;;;5073289;28;19909;-63
2022/02/02 01:37:19;;;;;;;;;;;19.40;40.60;;;;;;5073227;28;20386;-63
2022/02/02 01:39:47;;;;;;;;;;;19.40;40.60;;;;;;5073260;28;19908;-63
2022/02/02 01:42:16;;;;;;;;;;;19.40;40.60;;;;;;5073196;28;20007;-64
2022/02/02 01:47:09;;;;;;;;;;;19.50;40.60;;;;;;5073442;28;19909;-63
2022/02/02 01:57:28;;;;;;;;;;;19.40;40.60;;;;;;5073323;28;19908;-64
2022/02/02 01:59:54;;;;;;;;;;;19.40;40.60;;;;;;5072858;28;19916;-63
2022/02/02 02:02:19;;;;;;;;;;;19.40;40.60;;;;;;5073033;28;20253;-63
2022/02/02 02:04:45;;;;;;;;;;;19.40;40.60;;;;;;5072969;28;19955;-63
2022/02/02 02:07:11;;;;;;;;;;;19.40;40.60;;;;;;5073230;28;19954;-63
2022/02/02 02:09:36;;;;;;;;;;;19.40;40.60;;;;;;5072933;28;19912;-64
2022/02/02 02:12:03;;;;;;;;;;;19.40;40.60;;;;;;5073151;28;19941;-63
2022/02/02 02:14:52;;;;;;;;;;;19.40;40.60;;;;;;5072963;28;19908;-64
2022/02/02 02:17:18;;;;;;;;;;;19.40;40.60;;;;;;5072960;28;19912;-64
2022/02/02 02:19:48;;;;;;;;;;;19.40;40.60;;;;;;5072812;28;20257;-64
2022/02/02 02:22:16;;;;;;;;;;;19.40;40.60;;;;;;5073064;28;19908;-64
2022/02/02 02:24:43;;;;;;;;;;;19.40;40.60;;;;;;5072930;28;20332;-63
2022/02/02 02:27:11;;;;;;;;;;;19.30;40.60;;;;;;5072873;28;20007;-63
2022/02/02 02:32:39;;;;;;;;;;;19.40;40.60;;;;;;5072717;28;19920;-63
2022/02/02 02:38:01;;;;;;;;;;;19.40;40.60;;;;;;5076666;28;19912;-63
2022/02/02 02:57:13;;;;;;;;;;;19.30;40.60;;;;;;5070997;28;20322;-64
2022/02/02 03:00:02;;;;;;;;;;;19.30;40.60;;;;;;5075817;28;19951;-63
2022/02/02 03:14:11;;;;;;;;;;;19.30;40.60;;;;;;5075813;28;20334;-64
2022/02/02 03:14:12;;;;;;;;;;;19.30;40.60;;;;;;5075702;28;20265;-64
2022/02/02 03:30:17;;;;;;;;;;;19.30;40.60;;;;;;5075405;28;19954;-63
2022/02/02 03:49:21;;;;;;;;;;;19.30;40.60;;;;;;5075509;28;19909;-64
2022/02/02 03:52:19;;;;;;;;;;;19.20;40.60;;;;;;5074923;28;20418;-63
2022/02/02 03:54:56;;;;;;;;;;;19.30;40.60;;;;;;5074839;28;19909;-63
2022/02/02 03:57:33;;;;;;;;;;;19.30;40.60;;;;;;5074843;28;19909;-63
2022/02/02 04:07:52;;;;;;;;;;;19.20;40.60;;;;;;5074998;28;20022;-63
2022/02/02 04:10:17;;;;;;;;;;;19.20;40.60;;;;;;5074549;28;19961;-63
2022/02/02 04:53:48;;;;;;;;;;;19.30;40.50;;;;;;5073864;28;20026;-63
2022/02/02 04:56:18;;;;;;;;;;;19.20;40.50;;;;;;5073462;28;19909;-64
2022/02/02 04:58:58;;;;;;;;;;;19.20;40.50;;;;;;5055029;28;19920;-63
2022/02/02 05:04:31;;;;;;;;;;;19.20;40.60;;;;;;5073924;28;19920;-63
2022/02/02 05:07:06;;;;;;;;;;;19.20;40.60;;;;;;5073405;28;20356;-63
2022/02/02 05:15:40;;;;;;;;;;;19.20;40.50;;;;;;5073852;28;19912;-63
2022/02/02 05:42:55;;;;;;;;;;;19.50;40.30;;;;;;5073643;28;19942;-63
2022/02/02 05:53:13;;;;;;;;;;;19.50;40.20;;;;;;5073212;28;19928;-63
2022/02/02 05:55:39;;;;;;;;;;;19.50;40.10;;;;;;5073106;28;19909;-63
2022/02/02 05:58:07;;;;;;;;;;;19.50;40.20;;;;;;5073139;28;19931;-63
2022/02/02 06:00:33;;;;;;;;;;;19.60;40.10;;;;;;5054854;28;20291;-63
2022/02/02 06:03:01;;;;;;;;;;;19.60;40.10;;;;;;5073062;28;19995;-64
2022/02/02 06:05:27;;;;;;;;;;;19.60;40.10;;;;;;5072976;28;19915;-63
2022/02/02 06:07:54;;;;;;;;;;;19.60;40.10;;;;;;5072939;28;20383;-64
2022/02/02 06:10:20;;;;;;;;;;;19.60;40.10;;;;;;5076645;28;20474;-64
2022/02/02 06:12:47;;;;;;;;;;;19.60;40.10;;;;;;5076750;28;19963;-63
2022/02/02 06:15:15;;;;;;;;;;;19.60;40.10;;;;;;5076750;28;19913;-63
2022/02/02 06:17:44;;;;;;;;;;;19.60;40.10;;;;;;5076669;28;19916;-64
2022/02/02 06:20:10;;;;;;;;;;;19.60;40.10;;;;;;5076585;28;20313;-63
2022/02/02 06:22:39;;;;;;;;;;;19.70;40.10;;;;;;5076592;28;19950;-64
2022/02/02 06:25:13;;;;;;;;;;;19.70;40.10;;;;;;5076462;28;19999;-64
2022/02/02 06:27:43;;;;;;;;;;;19.70;40.10;;;;;;5076481;28;19914;-63
2022/02/02 06:30:09;;;;;;;;;;;19.70;40.10;;;;;;5076441;28;20353;-63
2022/02/02 06:32:40;;;;;;;;;;;19.70;40.10;;;;;;5076139;28;19942;-64
2022/02/02 06:35:06;;;;;;;;;;;19.70;40.00;;;;;;5076704;28;19947;-64
2022/02/02 06:37:31;;;;;;;;;;;19.70;40.00;;;;;;5076268;28;19908;-63
2022/02/02 06:39:57;;;;;;;;;;;19.70;40.00;;;;;;5076238;28;19909;-63
2022/02/02 06:42:23;;;;;;;;;;;19.70;40.00;;;;;;5076219;28;20423;-63
2022/02/02 06:44:49;;;;;;;;;;;19.70;40.00;;;;;;5091870;28;20253;-64
2022/02/02 06:47:15;;;;;;;;;;;19.70;40.00;;;;;;5058290;28;19913;-64
2022/02/02 06:49:44;;;;;;;;;;;19.70;40.00;;;;;;5076210;28;19915;-64
2022/02/02 06:52:16;;;;;;;;;;;19.70;40.10;;;;;;5076030;28;19924;-63
2022/02/02 06:54:50;;;;;;;;;;;19.70;40.00;;;;;;5076011;28;19943;-63
2022/02/02 06:57:22;;;;;;;;;;;19.70;40.00;;;;;;5076216;28;19948;-64
2022/02/02 07:00:08;;;;;;;;;;;19.70;40.00;;;;;;5075755;28;20360;-63
2022/02/02 07:02:48;;;;;;;;;;;19.70;40.00;;;;;;5075911;28;19915;-63
2022/02/02 07:13:31;;;;;;;;;;;19.80;39.90;;;;;;5037671;28;19931;-64
2022/02/02 07:18:35;;;;;;;;;;;19.80;39.90;;;;;;5075539;28;19912;-64
2022/02/02 07:21:18;;;;;;;;;;;19.80;39.90;;;;;;5074259;28;20272;-64
2022/02/02 07:31:42;;;;;;;;;;;19.90;39.80;;;;;;5088308;28;19916;-63
2022/02/02 07:34:30;;;;;;;;;;;19.90;39.90;;;;;;5073833;28;20515;-63
2022/02/02 07:36:59;;;;;;;;;;;19.90;39.90;;;;;;5090647;28;19953;-63
2022/02/02 07:39:26;;;;;;;;;;;19.80;39.90;;;;;;5094497;28;20310;-63
2022/02/02 07:41:54;;;;;;;;;;;19.90;40.00;;;;;;5093879;28;19966;-63
2022/02/02 07:44:24;;;;;;;;;;;19.90;40.00;;;;;;5089258;28;19939;-63
2022/02/02 07:46:52;;;;;;;;;;;19.90;40.00;;;;;;5086704;28;19916;-63
2022/02/02 07:49:21;;;;;;;;;;;19.90;40.00;;;;;;5085888;28;19955;-63
2022/02/02 07:51:50;;;;;;;;;;;19.90;40.00;;;;;;5098509;28;19916;-63
2022/02/02 07:54:20;;;;;;;;;;;19.90;40.00;;;;;;5077944;28;19978;-63
2022/02/02 07:56:47;;;;;;;;;;;19.90;40.10;;;;;;5088096;28;19912;-62
2022/02/02 08:01:49;;;;;;;;;;;19.90;40.10;;;;;;5088751;28;19963;-64
2022/02/02 08:04:16;;;;;;;;;;;19.90;40.10;;;;;;5074537;28;19954;-63
2022/02/02 08:06:48;;;;;;;;;;;20.00;40.20;;;;;;5088679;28;19997;-64
2022/02/02 08:09:22;;;;;;;;;;;20.00;40.20;;;;;;5079858;28;20011;-64
2022/02/02 08:11:50;;;;;;;;;;;20.00;40.20;;;;;;5092602;28;19924;-63
2022/02/02 08:14:16;;;;;;;;;;;20.00;40.10;;;;;;5077091;28;19923;-64
2022/02/02 08:16:43;;;;;;;;;;;20.00;40.10;;;;;;5090987;28;19920;-62
2022/02/02 08:19:08;;;;;;;;;;;20.00;40.10;;;;;;5077006;28;19999;-63
2022/02/02 08:21:33;;;;;;;;;;;20.00;40.10;;;;;;5073327;28;20011;-63
2022/02/02 08:23:59;;;;;;;;;;;20.00;40.10;;;;;;5073551;28;19930;-63
2022/02/02 08:26:25;;;;;;;;;;;20.00;40.10;;;;;;5084540;28;19998;-62
2022/02/02 08:28:52;;;;;;;;;;;20.00;40.20;;;;;;5092995;28;19908;-62
2022/02/02 08:31:18;;;;;;;;;;;20.10;40.10;;;;;;5091870;28;20586;-63
2022/02/02 08:33:47;;;;;;;;;;;20.10;40.10;;;;;;5093088;28;19908;-63
2022/02/02 08:36:16;;;;;;;;;;;20.10;40.10;;;;;;5072366;28;19913;-63
2022/02/02 08:41:24;;;;;;;;;;;20.10;40.10;;;;;;5103527;28;20317;-64
2022/02/02 08:44:04;;;;;;;;;;;20.10;40.10;;;;;;5092877;28;19916;-64
2022/02/02 08:46:34;;;;;;;;;;;20.10;40.10;;;;;;5076714;28;19912;-64
2022/02/02 08:49:01;;;;;;;;;;;20.10;40.20;;;;;;5072874;28;20371;-63
2022/02/02 08:51:33;;;;;;;;;;;20.10;40.20;;;;;;5083178;28;19927;-62
2022/02/02 08:57:03;;;;;;;;;;;20.10;40.30;;;;;;5085778;28;20356;-63
2022/02/02 09:01:49;;;;;;;;;;;20.20;40.20;;;;;;5090157;28;19920;-62
2022/02/02 09:06:59;;;;;;;;;;;20.10;40.30;;;;;;5091841;28;19965;-62
2022/02/02 09:09:43;;;;;;;;;;;20.20;40.30;;;;;;5074380;28;19917;-62
2022/02/02 09:20:45;;;;;;;;;;;20.20;40.40;;;;;;5075966;28;19961;-61
2022/02/02 09:23:26;;;;;;;;;;;20.20;40.40;;;;;;5083804;28;20298;-60
2022/02/02 09:34:12;;;;;;;;;;;20.20;40.30;;;;;;5092053;28;19919;-63
2022/02/02 09:36:41;;;;;;;;;;;20.20;40.40;;;;;;5087520;28;20038;-62
2022/02/02 09:39:17;;;;;;;;;;;20.20;40.30;;;;;;5071908;28;19995;-63
2022/02/02 09:41:49;;;;;;;;;;;20.20;40.40;;;;;;5087440;28;19920;-63
2022/02/02 09:44:18;;;;;;;;;;;20.30;40.30;;;;;;5093736;28;19908;-62
2022/02/02 09:49:18;;;;;;;;;;;20.30;40.40;;;;;;5096566;28;19916;-63
2022/02/02 09:52:03;;;;;;;;;;;20.20;40.40;;;;;;5092699;28;19928;-61
2022/02/02 09:54:43;;;;;;;;;;;20.30;40.40;;;;;;5096129;28;19908;-63
2022/02/02 10:00:00;;;;;;;;;;;20.30;40.40;;;;;;5084397;28;20378;-62
2022/02/02 10:05:05;;;;;;;;;;;20.20;40.40;;;;;;5088003;28;20250;-61
2022/02/02 10:15:28;;;;;;;;;;;20.30;40.50;;;;;;5093546;28;20018;-64
2022/02/02 10:18:00;;;;;;;;;;;20.30;40.40;;;;;;5096061;28;19964;-64
2022/02/02 10:20:27;;;;;;;;;;;20.30;40.40;;;;;;5087947;28;19958;-63
2022/02/02 10:22:57;;;;;;;;;;;20.40;40.30;;;;;;5069913;28;20386;-63
2022/02/02 10:25:23;;;;;;;;;;;20.30;40.30;;;;;;5079862;28;19920;-63
2022/02/02 10:27:49;;;;;;;;;;;20.30;40.20;;;;;;5095647;28;19908;-63
2022/02/02 10:30:16;;;;;;;;;;;20.30;40.30;;;;;;5082959;28;19954;-63
2022/02/02 10:32:46;;;;;;;;;;;20.40;40.20;;;;;;5093597;28;19932;-63
2022/02/02 10:35:36;;;;;;;;;;;20.40;40.30;;;;;;5064992;28;19960;-63
2022/02/02 10:38:08;;;;;;;;;;;20.40;40.20;;;;;;5087851;28;19946;-62
2022/02/02 10:43:33;;;;;;;;;;;20.60;39.80;;;;;;5047943;28;19919;-63
2022/02/02 10:46:10;;;;;;;;;;;20.50;39.90;;;;;;5088755;28;19920;-64
2022/02/02 10:48:42;;;;;;;;;;;20.50;39.90;;;;;;5094638;28;19912;-64
2022/02/02 10:51:36;;;;;;;;;;;20.50;39.90;;;;;;5094754;28;19923;-62
2022/02/02 10:54:16;;;;;;;;;;;20.60;39.90;;;;;;5092775;28;20260;-63
2022/02/02 10:56:48;;;;;;;;;;;20.60;39.90;;;;;;5086964;28;19946;-64
2022/02/02 10:59:28;;;;;;;;;;;20.60;39.90;;;;;;5086440;28;19912;-63
2022/02/02 11:07:20;;;;;;;;;;;20.50;40.10;;;;;;5036446;28;19913;-64
2022/02/02 11:09:46;;;;;;;;;;;20.50;40.10;;;;;;5074184;28;20340;-64
2022/02/02 11:12:13;;;;;;;;;;;20.50;40.10;;;;;;5090148;28;19924;-64
2022/02/02 11:14:52;;;;;;;;;;;20.50;40.10;;;;;;5091832;28;19950;-64
2022/02/02 11:17:42;;;;;;;;;;;20.50;40.10;;;;;;5094231;28;20004;-64
2022/02/02 11:20:11;;;;;;;;;;;20.50;40.10;;;;;;5094091;28;20244;-64
2022/02/02 11:22:45;;;;;;;;;;;20.50;40.20;;;;;;5094388;28;19957;-64
2022/02/02 11:25:10;;;;;;;;;;;20.40;40.20;;;;;;5094303;28;19912;-65
2022/02/02 11:27:39;;;;;;;;;;;20.40;40.20;;;;;;5088461;28;20429;-63
2022/02/02 11:30:08;;;;;;;;;;;20.50;40.20;;;;;;5074973;28;19949;-63
2022/02/02 11:32:42;;;;;;;;;;;20.40;40.20;;;;;;5089475;28;19928;-63
2022/02/02 11:35:41;;;;;;;;;;;20.40;40.20;;;;;;5096466;28;19916;-63
2022/02/02 11:38:18;;;;;;;;;;;20.40;40.20;;;;;;5082312;28;19981;-62
2022/02/02 11:41:02;;;;;;;;;;;20.40;40.30;;;;;;5094035;28;19973;-61
2022/02/02 11:43:46;;;;;;;;;;;20.40;40.30;;;;;;5093700;28;19951;-62
2022/02/02 11:46:31;;;;;;;;;;;20.40;40.30;;;;;;5083644;28;19919;-63
2022/02/02 11:49:02;;;;;;;;;;;20.40;40.40;;;;;;5073279;28;19916;-65
2022/02/02 11:51:46;;;;;;;;;;;20.40;40.40;;;;;;5081096;28;20057;-63
2022/02/02 11:54:13;;;;;;;;;;;20.40;40.40;;;;;;5106593;28;19985;-64
2022/02/02 11:56:57;;;;;;;;;;;20.30;40.40;;;;;;5099899;28;19912;-62
2022/02/02 12:00:06;;;;;;;;;;;20.40;40.40;;;;;;5073248;28;19912;-64
2022/02/02 12:05:18;;;;;;;;;;;20.40;40.30;;;;;;5078201;28;19920;-63
2022/02/02 12:07:49;;;;;;;;;;;20.40;40.40;;;;;;5082343;28;19917;-64
2022/02/02 12:10:33;;;;;;;;;;;20.40;40.30;;;;;;5081233;28;19963;-64
2022/02/02 12:19:12;;;;;;;;;;;20.40;40.30;;;;;;5093244;28;20000;-64
2022/02/02 12:47:05;;;;;;;;;;;20.40;40.50;;;;;;5101164;28;19919;-63
2022/02/02 12:57:16;;;;;;;;;;;20.40;40.50;;;;;;5089109;28;19965;-64
2022/02/02 13:02:17;;;;;;;;;;;20.40;40.40;;;;;;5086755;28;19927;-64
2022/02/02 13:04:44;;;;;;;;;;;20.40;40.30;;;;;;5078775;28;20364;-64
2022/02/02 13:07:11;;;;;;;;;;;20.40;40.40;;;;;;5089854;28;19956;-65
2022/02/02 13:09:37;;;;;;;;;;;20.40;40.40;;;;;;5078346;28;19951;-64
2022/02/02 13:12:23;;;;;;;;;;;20.40;40.40;;;;;;5091585;28;20231;-64
2022/02/02 13:15:16;;;;;;;;;;;20.40;40.40;;;;;;5067718;28;19913;-63
2022/02/02 13:17:51;;;;;;;;;;;20.40;40.40;;;;;;5090085;28;20018;-62
2022/02/02 13:20:24;;;;;;;;;;;20.40;40.50;;;;;;5077982;28;20431;-63
2022/02/02 13:23:00;;;;;;;;;;;20.50;40.40;;;;;;5091368;28;19914;-63
2022/02/02 13:25:30;;;;;;;;;;;20.50;40.40;;;;;;5073796;28;20355;-63
2022/02/02 13:27:58;;;;;;;;;;;20.40;40.40;;;;;;5073893;28;19915;-62
2022/02/02 13:30:31;;;;;;;;;;;20.40;40.50;;;;;;5091963;28;19921;-62
2022/02/02 13:33:06;;;;;;;;;;;20.40;40.50;;;;;;5078763;28;19920;-61
2022/02/02 13:35:39;;;;;;;;;;;20.40;40.60;;;;;;5076509;28;19913;-63
2022/02/02 13:38:23;;;;;;;;;;;20.40;40.50;;;;;;5064155;28;19970;-63
2022/02/02 13:43:54;;;;;;;;;;;20.40;40.50;;;;;;5092464;28;19919;-63
2022/02/02 13:46:48;;;;;;;;;;;20.40;40.50;;;;;;5082420;28;19912;-63
2022/02/02 13:49:43;;;;;;;;;;;20.30;40.40;;;;;;5087904;28;20038;-63
2022/02/02 13:52:25;;;;;;;;;;;20.40;40.50;;;;;;5090984;28;19928;-64
2022/02/02 13:55:05;;;;;;;;;;;20.40;40.50;;;;;;5091940;28;20008;-64
2022/02/02 13:57:57;;;;;;;;;;;20.40;40.50;;;;;;5086717;28;19916;-62
2022/02/02 14:05:57;;;;;;;;;;;20.40;40.50;;;;;;5075697;28;19954;-62
2022/02/02 14:32:26;;;;;;;;;;;20.40;40.50;;;;;;5086455;28;19943;-63
2022/02/02 14:34:52;;;;;;;;;;;20.40;40.50;;;;;;5074543;28;20360;-62
2022/02/02 14:37:22;;;;;;;;;;;20.40;40.50;;;;;;5086995;28;19912;-63
2022/02/02 14:40:00;;;;;;;;;;;20.40;40.30;;;;;;5075205;28;19959;-63
2022/02/02 14:42:30;;;;;;;;;;;20.40;40.40;;;;;;5094510;28;20006;-63
2022/02/02 14:45:02;;;;;;;;;;;20.40;40.20;;;;;;5094501;28;19912;-62
2022/02/02 14:47:36;;;;;;;;;;;20.40;40.50;;;;;;5085859;28;19923;-63
2022/02/02 14:50:12;;;;;;;;;;;20.50;40.40;;;;;;5057041;28;20323;-61
2022/02/02 14:55:52;;;;;;;;;;;20.40;40.40;;;;;;5077094;28;19909;-61
2022/02/02 15:28:04;;;;;;;;;;;20.40;40.50;;;;;;5079015;28;20003;-61
2022/02/02 15:33:19;;;;;;;;;;;20.40;40.50;;;;;;5076392;28;20450;-61
2022/02/02 15:35:46;;;;;;;;;;;20.40;40.50;;;;;;5078478;28;20417;-60
2022/02/02 15:38:48;;;;;;;;;;;20.40;40.50;;;;;;5074105;28;19954;-60
2022/02/02 15:41:08;;;;;;;;;;;20.40;40.50;;;;;;5074454;28;19955;-60
2022/02/02 16:02:15;;;;;;;;;;;20.40;40.50;;;;;;5074986;28;19973;-62
2022/02/02 16:04:41;;;;;;;;;;;20.40;40.50;;;;;;5076059;28;19929;-62
2022/02/02 16:07:09;;;;;;;;;;;20.40;40.50;;;;;;5081533;28;19912;-63
2022/02/02 16:09:50;;;;;;;;;;;20.40;40.50;;;;;;5074359;28;19908;-62
2022/02/02 16:14:52;;;;;;;;;;;20.40;40.50;;;;;;5091541;28;19912;-61
2022/02/02 16:17:41;;;;;;;;;;;20.40;40.50;;;;;;5092353;28;20370;-60
2022/02/02 16:36:15;;;;;;;;;;;20.40;40.50;;;;;;5103597;28;19930;-61
2022/02/02 16:38:50;;;;;;;;;;;20.50;40.30;;;;;;5113865;28;19908;-62
2022/02/02 16:43:07;;;;;;;;;;;20.50;40.30;;;;;;5113919;28;19908;-61
2022/02/02 16:44:04;;;;;;;;;;;20.40;40.50;;;;;;5112994;28;20260;-62
2022/02/02 16:46:29;;;;;;;;;;;20.40;40.60;;;;;;5094273;28;19972;-61
2022/02/02 16:48:55;;;;;;;;;;;20.40;40.60;;;;;;5095530;28;19929;-62
2022/02/02 16:51:20;;;;;;;;;;;20.30;40.60;;;;;;5112551;28;19942;-62
2022/02/02 16:53:49;;;;;;;;;;;20.40;40.50;;;;;;5112063;28;19912;-62
2022/02/02 16:56:27;;;;;;;;;;;20.30;40.50;;;;;;5112121;28;20358;-61
2022/02/02 17:34:37;;;;;;;;;;;20.30;40.50;;;;;;5113974;28;19924;-60
2022/02/02 17:37:23;;;;;;;;;;;20.30;40.40;;;;;;5113533;28;20419;-61
2022/02/02 17:40:04;;;;;;;;;;;20.30;40.30;;;;;;5095456;28;19907;-60
2022/02/02 18:19:59;;;;;;;;;;;20.20;40.20;;;;;;5117273;28;20324;-60
2022/02/02 18:22:31;;;;;;;;;;;20.30;40.30;;;;;;5116938;28;19915;-60
2022/02/02 18:25:38;;;;;;;;;;;20.30;40.30;;;;;;5116938;28;19991;-61
2022/02/02 18:28:07;;;;;;;;;;;20.20;40.20;;;;;;5113542;28;19907;-60
2022/02/02 18:30:52;;;;;;;;;;;20.20;40.20;;;;;;5117218;28;19981;-60
2022/02/02 18:35:52;;;;;;;;;;;20.30;40.00;;;;;;5117154;28;19912;-60
2022/02/02 18:48:45;;;;;;;;;;;20.20;40.20;;;;;;5116918;28;19912;-61
2022/02/02 18:56:32;;;;;;;;;;;20.20;40.20;;;;;;5116822;28;19912;-61
2022/02/02 19:04:24;;;;;;;;;;;20.20;40.10;;;;;;5116790;28;19916;-60
2022/02/02 19:31:09;;;;;;;;;;;20.20;40.10;;;;;;5116403;28;19948;-60
2022/02/02 19:37:18;;;;;;;;;;;20.20;40.00;;;;;;5115857;28;19919;-61
2022/02/02 19:37:37;;;;;;;;;;;20.20;40.00;;;;;;5116052;28;20292;-60
2022/02/02 19:55:12;;;;;;;;;;;20.20;40.00;;;;;;5052488;28;20008;-60
2022/02/02 19:57:00;;;;;;;;;;;20.20;40.00;;;;;;5052439;28;19999;-61
2022/02/02 20:05:17;;;;;;;;;;;20.20;39.90;;;;;;5115586;28;19915;-61
2022/02/02 20:07:53;;;;;;;;;;;20.20;40.00;;;;;;5115442;28;19934;-60
2022/02/02 20:12:46;;;;;;;;;;;20.20;40.00;;;;;;5115192;28;19920;-61
2022/02/02 20:15:14;;;;;;;;;;;20.20;39.90;;;;;;5115046;28;20252;-60
2022/02/02 20:17:40;;;;;;;;;;;20.20;39.90;;;;;;5114892;28;19912;-60
2022/02/02 20:20:19;;;;;;;;;;;20.20;39.90;;;;;;5114813;28;20378;-60
2022/02/02 20:22:44;;;;;;;;;;;20.20;39.90;;;;;;5114830;28;20227;-61
2022/02/02 20:25:11;;;;;;;;;;;20.20;39.90;;;;;;5114680;28;19908;-60
2022/02/02 20:27:37;;;;;;;;;;;20.20;39.90;;;;;;5114263;28;20361;-60
2022/02/02 20:30:07;;;;;;;;;;;20.20;39.90;;;;;;5114929;28;19914;-60
2022/02/02 20:32:32;;;;;;;;;;;20.20;39.90;;;;;;5114685;28;19999;-61
2022/02/02 20:34:58;;;;;;;;;;;20.20;39.90;;;;;;5114614;28;20008;-61
2022/02/02 20:37:23;;;;;;;;;;;20.20;39.90;;;;;;5114729;28;19956;-60
2022/02/02 20:42:20;;;;;;;;;;;20.20;39.90;;;;;;5114728;28;19908;-61
2022/02/02 21:03:41;;;;;;;;;;;20.20;39.80;;;;;;5114593;28;19931;-61
2022/02/02 21:13:40;;;;;;;;;;;20.20;39.80;;;;;;5114080;28;19915;-60
2022/02/02 21:14:13;;;;;;;;;;;20.20;39.80;;;;;;5105436;28;20476;-61
2022/02/02 21:16:41;;;;;;;;;;;20.20;39.90;;;;;;5114119;28;19969;-61
2022/02/02 21:19:09;;;;;;;;;;;20.20;39.80;;;;;;5113929;28;19962;-61
2022/02/02 21:21:48;;;;;;;;;;;20.20;39.90;;;;;;5114278;28;19966;-60
2022/02/02 21:29:35;;;;;;;;;;;20.20;39.90;;;;;;5114100;28;20040;-60
2022/02/02 21:32:00;;;;;;;;;;;20.10;39.90;;;;;;5113695;28;20018;-61
2022/02/02 21:34:26;;;;;;;;;;;20.10;39.90;;;;;;5113786;28;19930;-61
2022/02/02 21:36:54;;;;;;;;;;;20.10;39.90;;;;;;5113792;28;19942;-61
2022/02/02 21:39:24;;;;;;;;;;;20.10;39.90;;;;;;5112862;28;19914;-60
2022/02/02 21:41:52;;;;;;;;;;;20.10;39.90;;;;;;5113820;28;19930;-60
2022/02/02 21:44:17;;;;;;;;;;;20.00;39.90;;;;;;5113736;28;19915;-60
2022/02/02 21:46:43;;;;;;;;;;;20.00;39.90;;;;;;5113703;28;19908;-61
2022/02/02 21:49:15;;;;;;;;;;;20.00;39.90;;;;;;5113913;28;19953;-60
2022/02/02 21:51:52;;;;;;;;;;;20.00;39.90;;;;;;5114047;28;19912;-61
2022/02/02 21:54:18;;;;;;;;;;;20.00;40.00;;;;;;5113737;28;19994;-61
2022/02/02 21:56:43;;;;;;;;;;;20.00;40.00;;;;;;5113668;28;20008;-61
2022/02/02 21:59:08;;;;;;;;;;;20.00;40.00;;;;;;5114023;28;19953;-61
2022/02/02 22:01:34;;;;;;;;;;;20.00;40.00;;;;;;5113517;28;20492;-61
2022/02/02 22:03:59;;;;;;;;;;;20.00;40.00;;;;;;5113539;28;19908;-60
2022/02/02 22:06:25;;;;;;;;;;;20.00;40.00;;;;;;5113631;28;19992;-61
2022/02/02 22:08:50;;;;;;;;;;;20.00;40.00;;;;;;5113515;28;19998;-61
2022/02/02 22:11:16;;;;;;;;;;;20.00;40.00;;;;;;5113488;28;20325;-60
2022/02/02 22:13:43;;;;;;;;;;;20.00;40.00;;;;;;5113594;28;19923;-61
2022/02/02 22:16:12;;;;;;;;;;;20.00;40.00;;;;;;5113720;28;19908;-60
2022/02/02 22:18:39;;;;;;;;;;;20.00;40.00;;;;;;5113341;28;20007;-60
2022/02/02 22:21:04;;;;;;;;;;;20.00;40.00;;;;;;5113433;28;20580;-60
2022/02/02 22:23:30;;;;;;;;;;;20.00;40.00;;;;;;5113421;28;19907;-60
2022/02/02 22:25:57;;;;;;;;;;;20.00;40.00;;;;;;5113293;28;19914;-61
2022/02/02 22:28:23;;;;;;;;;;;20.00;40.00;;;;;;5113329;28;19908;-61
2022/02/02 22:30:48;;;;;;;;;;;20.00;40.00;;;;;;5113280;28;19948;-61
2022/02/02 22:33:14;;;;;;;;;;;20.00;40.00;;;;;;5113378;28;19920;-60
2022/02/02 22:35:39;;;;;;;;;;;20.00;40.00;;;;;;5113337;28;19914;-60
2022/02/02 22:38:05;;;;;;;;;;;20.00;40.00;;;;;;5113232;28;19930;-60
2022/02/02 22:40:30;;;;;;;;;;;19.90;40.10;;;;;;5113208;28;19916;-61
2022/02/02 22:42:56;;;;;;;;;;;19.90;40.10;;;;;;5095016;28;19915;-61
2022/02/02 22:45:21;;;;;;;;;;;19.90;40.10;;;;;;5113190;28;19908;-60
2022/02/02 22:47:48;;;;;;;;;;;19.90;40.10;;;;;;5113421;28;19908;-60
2022/02/02 22:50:15;;;;;;;;;;;19.90;40.10;;;;;;5113819;28;19942;-61
2022/02/02 22:52:46;;;;;;;;;;;19.90;40.10;;;;;;5116751;28;19915;-60
2022/02/02 22:55:13;;;;;;;;;;;19.90;40.10;;;;;;5116799;28;19908;-60
2022/02/02 22:57:39;;;;;;;;;;;19.90;40.10;;;;;;5116731;28;20315;-60
2022/02/02 23:00:11;;;;;;;;;;;19.90;40.10;;;;;;5116485;28;19966;-60
2022/02/02 23:02:53;;;;;;;;;;;19.80;40.10;;;;;;5098319;28;19950;-61
2022/02/02 23:05:21;;;;;;;;;;;19.90;40.10;;;;;;5116560;28;20264;-60
2022/02/02 23:07:47;;;;;;;;;;;19.90;40.10;;;;;;5116707;28;19907;-60
2022/02/02 23:10:12;;;;;;;;;;;19.90;40.10;;;;;;5116479;28;20412;-60
2022/02/02 23:12:38;;;;;;;;;;;19.90;40.10;;;;;;5116361;28;19916;-61
2022/02/02 23:15:08;;;;;;;;;;;19.90;40.10;;;;;;5116425;28;19915;-60
2022/02/02 23:17:35;;;;;;;;;;;19.90;40.20;;;;;;5116387;28;19908;-61
2022/02/02 23:20:00;;;;;;;;;;;19.80;40.20;;;;;;5116456;28;19908;-60
2022/02/02 23:22:29;;;;;;;;;;;19.90;40.20;;;;;;5116689;28;19908;-60
2022/02/02 23:24:58;;;;;;;;;;;19.80;40.20;;;;;;5116430;28;19912;-60
2022/02/02 23:27:24;;;;;;;;;;;19.90;40.20;;;;;;5116170;28;19919;-61
2022/02/02 23:29:53;;;;;;;;;;;19.90;40.20;;;;;;5116054;28;20290;-61
2022/02/02 23:32:21;;;;;;;;;;;19.80;40.30;;;;;;5115963;28;19916;-60
2022/02/02 23:34:47;;;;;;;;;;;19.90;40.20;;;;;;5115991;28;19924;-61
2022/02/02 23:37:13;;;;;;;;;;;19.80;40.20;;;;;;5115973;28;20430;-60
2022/02/02 23:39:40;;;;;;;;;;;19.80;40.20;;;;;;5115861;28;19907;-61
2022/02/02 23:42:19;;;;;;;;;;;19.80;40.20;;;;;;5115945;28;19991;-61
2022/02/02 23:44:48;;;;;;;;;;;19.80;40.20;;;;;;5115857;28;19911;-60
2022/02/02 23:47:15;;;;;;;;;;;19.80;40.30;;;;;;5115763;28;19933;-60
2022/02/02 23:49:48;;;;;;;;;;;19.80;40.30;;;;;;5115712;28;20389;-61
2022/02/02 23:52:14;;;;;;;;;;;19.80;40.20;;;;;;5115723;28;20264;-60
2022/02/02 23:54:42;;;;;;;;;;;19.80;40.40;;;;;;5115589;28;19953;-60
2022/02/02 23:57:13;;;;;;;;;;;19.80;40.30;;;;;;5115876;28;20003;-60
2022/02/02 23:59:54;;;;;;;;;;;19.80;40.30;;;;;;5115294;28;20347;-60
